Clintonville, West Virginia
Current Conditions -  °F | °C
As of 9:55 PM on Thursday 27 Nov 2014 (Local Time) from KLWB Reporting Station
Light Snow Light Snow  
Wind Chill: -5°   Ceiling: 3400
Heat Index: -2°   Visibility: 10mi
Dew Point: -6°   Wind: 6mph
Humidity: 74%   Direction: 280°W
Pressure: 30.22"   Gusts: NA
Location:  37.9616°N, 80.6134°W
Report Text: KLWB 280255Z AUTO 28005KT 10SM -SN OVC034 M02/M06 A3022 RMK AO2 T10201061
Loading
Personal Weather Stations






























Interactive Weather Map New forecast layout! Learn more

10-Day Weather Forecast

Advertisements
Track Severe Weather on mobile